createdAt,value
2023-06-05T00:02:00.980Z,11.21
2023-06-05T00:04:31.119Z,11.17
2023-06-05T00:06:58.302Z,11.11
2023-06-05T00:09:24.901Z,11.02
2023-06-05T00:11:51.587Z,11.06
2023-06-05T00:14:18.251Z,10.97
2023-06-05T00:16:44.976Z,11.04
2023-06-05T00:19:12.218Z,11.01
2023-06-05T00:21:38.835Z,11.03
2023-06-05T00:24:05.774Z,10.95
2023-06-05T00:26:32.415Z,10.82
2023-06-05T00:28:59.069Z,10.81
2023-06-05T00:31:26.033Z,10.69
2023-06-05T00:33:52.937Z,10.61
2023-06-05T00:36:23.531Z,10.59
2023-06-05T00:38:51.425Z,10.53
2023-06-05T00:41:18.232Z,10.50
2023-06-05T00:43:45.289Z,10.53
2023-06-05T00:46:12.480Z,10.51
2023-06-05T00:48:40.137Z,10.43
2023-06-05T00:51:08.183Z,10.40
2023-06-05T00:53:36.661Z,10.28
2023-06-05T00:56:03.972Z,10.30
2023-06-05T00:58:32.625Z,10.28
2023-06-05T01:00:59.512Z,10.21
2023-06-05T01:03:30.545Z,10.14
2023-06-05T01:06:04.340Z,10.29
2023-06-05T01:08:40.030Z,10.27
2023-06-05T01:11:16.079Z,10.25
2023-06-05T01:13:49.618Z,10.21
2023-06-05T01:16:16.382Z,10.22
2023-06-05T01:18:47.157Z,10.37
2023-06-05T01:21:14.727Z,10.51
2023-06-05T01:23:45.601Z,10.48
2023-06-05T01:26:22.455Z,10.44
2023-06-05T01:28:51.327Z,10.43
2023-06-05T01:31:21.932Z,10.45
2023-06-05T01:33:58.085Z,10.49
2023-06-05T01:36:25.154Z,10.52
2023-06-05T01:38:54.155Z,10.53
2023-06-05T01:41:21.562Z,10.52
2023-06-05T01:43:49.284Z,10.44
2023-06-05T01:46:19.492Z,10.42
2023-06-05T01:48:46.591Z,10.38
2023-06-05T01:51:13.509Z,10.36
2023-06-05T01:53:40.394Z,10.28
2023-06-05T01:56:09.346Z,10.33
2023-06-05T01:58:36.900Z,10.33
2023-06-05T02:01:04.443Z,10.31
2023-06-05T02:03:31.637Z,10.24
2023-06-05T02:05:58.341Z,10.21
2023-06-05T02:08:26.194Z,10.27
2023-06-05T02:10:53.817Z,10.16
2023-06-05T02:13:20.898Z,10.09
2023-06-05T02:15:47.875Z,10.02
2023-06-05T02:18:14.461Z,9.92
2023-06-05T02:20:42.626Z,9.91
2023-06-05T02:23:09.495Z,9.89
2023-06-05T02:25:36.183Z,9.86
2023-06-05T02:28:03.068Z,9.84
2023-06-05T02:30:29.678Z,9.87
2023-06-05T02:33:01.900Z,9.83
2023-06-05T02:35:30.425Z,9.77
2023-06-05T02:37:57.848Z,9.69
2023-06-05T02:40:24.675Z,9.66
2023-06-05T02:42:51.731Z,9.61
2023-06-05T02:45:18.591Z,9.57
2023-06-05T02:47:45.260Z,9.51
2023-06-05T02:50:12.734Z,9.46
2023-06-05T02:52:40.908Z,9.49
2023-06-05T02:55:09.061Z,9.55
2023-06-05T02:57:42.847Z,9.51
2023-06-05T03:00:11.246Z,9.45
2023-06-05T03:02:38.758Z,9.41
2023-06-05T03:05:05.954Z,9.45
2023-06-05T03:07:35.198Z,9.38
2023-06-05T03:10:02.670Z,9.34
2023-06-05T03:12:29.216Z,9.28
2023-06-05T03:14:55.818Z,9.27
2023-06-05T03:17:24.437Z,9.25
2023-06-05T03:19:52.119Z,9.27
2023-06-05T03:22:19.263Z,9.22
2023-06-05T03:24:46.695Z,9.20
2023-06-05T03:27:13.839Z,9.22
2023-06-05T03:29:40.743Z,9.24
2023-06-05T03:32:07.371Z,9.25
2023-06-05T03:34:37.494Z,9.23
2023-06-05T03:37:05.012Z,9.25
2023-06-05T03:39:32.111Z,9.26
2023-06-05T03:41:58.714Z,9.27
2023-06-05T03:44:25.525Z,9.28
2023-06-05T03:46:52.269Z,9.30
2023-06-05T03:49:19.214Z,9.28
2023-06-05T03:51:46.841Z,9.24
2023-06-05T03:54:14.250Z,9.28
2023-06-05T03:56:44.466Z,9.28
2023-06-05T03:59:19.848Z,9.32
2023-06-05T04:01:47.092Z,9.31
2023-06-05T04:04:13.868Z,9.33
2023-06-05T04:06:41.594Z,9.37
2023-06-05T04:09:13.432Z,9.42
2023-06-05T04:11:44.866Z,9.40
2023-06-05T04:14:12.302Z,9.44
2023-06-05T04:16:40.045Z,9.50
2023-06-05T04:19:07.924Z,9.54
2023-06-05T04:21:37.282Z,9.59
2023-06-05T04:24:12.160Z,9.67
2023-06-05T04:26:42.500Z,9.75
2023-06-05T04:29:16.891Z,9.83
2023-06-05T04:31:46.130Z,9.93
2023-06-05T04:34:13.563Z,10.14
2023-06-05T04:36:42.153Z,10.31
2023-06-05T04:39:15.427Z,10.45
2023-06-05T04:41:46.448Z,10.51
2023-06-05T04:44:15.045Z,10.59
2023-06-05T04:46:44.306Z,10.68
2023-06-05T04:49:11.968Z,10.75
2023-06-05T04:51:38.555Z,10.80
2023-06-05T04:54:06.342Z,10.89
2023-06-05T04:56:35.486Z,11.06
2023-06-05T04:59:03.776Z,11.17
2023-06-05T05:01:31.112Z,11.33
2023-06-05T05:03:57.960Z,11.50
2023-06-05T05:06:25.442Z,11.67
2023-06-05T05:08:52.229Z,11.85
2023-06-05T05:11:18.858Z,12.06
2023-06-05T05:13:45.677Z,12.35
2023-06-05T05:16:12.336Z,12.59
2023-06-05T05:18:44.496Z,12.76
2023-06-05T05:21:11.585Z,13.00
2023-06-05T05:23:38.319Z,13.14
2023-06-05T05:26:06.108Z,13.27
2023-06-05T05:28:32.903Z,13.48
2023-06-05T05:31:00.189Z,13.69
2023-06-05T05:33:26.979Z,13.98
2023-06-05T05:35:53.736Z,14.26
2023-06-05T05:38:22.625Z,14.56
2023-06-05T05:40:50.801Z,14.65
2023-06-05T05:43:21.858Z,14.95
2023-06-05T05:45:48.756Z,15.28
2023-06-05T05:48:15.549Z,15.38
2023-06-05T05:50:42.582Z,15.30
2023-06-05T05:53:09.275Z,15.16
2023-06-05T05:55:35.850Z,15.15
2023-06-05T05:58:02.479Z,15.26
2023-06-05T06:00:31.563Z,15.24
2023-06-05T06:02:58.465Z,15.04
2023-06-05T06:05:25.634Z,14.94
2023-06-05T06:07:52.329Z,14.86
2023-06-05T06:10:19.182Z,14.93
2023-06-05T06:12:46.494Z,14.87
2023-06-05T06:15:13.136Z,14.74
2023-06-05T06:17:39.882Z,14.64
2023-06-05T06:20:14.386Z,14.67
2023-06-05T06:22:41.951Z,14.81
2023-06-05T06:25:11.713Z,15.39
2023-06-05T06:27:38.515Z,15.53
2023-06-05T06:30:06.694Z,15.69
2023-06-05T06:32:33.447Z,15.99
2023-06-05T06:35:01.040Z,16.06
2023-06-05T06:37:28.043Z,16.51
2023-06-05T06:39:55.003Z,16.80
2023-06-05T06:42:21.799Z,16.84
2023-06-05T06:44:51.985Z,17.03
2023-06-05T06:47:18.657Z,17.26
2023-06-05T06:49:45.363Z,17.42
2023-06-05T06:52:22.653Z,17.46
2023-06-05T06:54:51.388Z,18.06
2023-06-05T06:57:18.103Z,18.07
2023-06-05T06:59:46.070Z,18.30
2023-06-05T07:02:18.575Z,18.20
2023-06-05T07:04:45.845Z,18.31
2023-06-05T07:07:17.059Z,18.64
2023-06-05T07:09:47.676Z,18.61
2023-06-05T07:12:20.529Z,18.70
2023-06-05T07:14:48.012Z,18.97
2023-06-05T07:17:15.607Z,18.89
2023-06-05T07:19:42.430Z,18.91
2023-06-05T07:22:09.376Z,19.03
2023-06-05T07:24:42.891Z,19.22
2023-06-05T07:27:09.747Z,19.18
2023-06-05T07:29:37.095Z,19.09
2023-06-05T07:32:07.536Z,19.09
2023-06-05T07:34:35.876Z,19.42
2023-06-05T07:37:03.050Z,19.57
2023-06-05T07:39:29.836Z,19.45
2023-06-05T07:41:57.069Z,19.67
2023-06-05T07:44:23.880Z,19.62
2023-06-05T07:46:53.221Z,19.96
2023-06-05T07:49:20.091Z,20.11
2023-06-05T07:51:48.964Z,20.39
2023-06-05T07:54:20.298Z,20.90
2023-06-05T07:56:53.737Z,20.98
2023-06-05T07:59:25.434Z,20.89
2023-06-05T08:01:57.793Z,21.44
2023-06-05T08:04:26.474Z,20.86
2023-06-05T08:06:53.368Z,20.76
2023-06-05T08:09:20.234Z,20.83
2023-06-05T08:11:47.183Z,21.34
2023-06-05T08:14:13.790Z,21.50
2023-06-05T08:16:40.773Z,21.75
2023-06-05T08:19:07.837Z,21.92
2023-06-05T08:21:35.438Z,22.22
2023-06-05T08:24:02.351Z,22.57
2023-06-05T08:26:29.139Z,22.63
2023-06-05T08:28:59.258Z,22.96
2023-06-05T08:31:26.413Z,22.50
2023-06-05T08:33:53.182Z,22.59
2023-06-05T08:36:22.876Z,22.85
2023-06-05T08:38:49.645Z,22.75
2023-06-05T08:41:17.597Z,22.53
2023-06-05T08:43:51.350Z,22.95
2023-06-05T08:46:21.465Z,23.09
2023-06-05T08:48:57.788Z,23.14
2023-06-05T08:51:24.669Z,23.30
2023-06-05T08:54:20.773Z,23.14
2023-06-05T08:56:47.581Z,23.10
2023-06-05T08:59:16.249Z,22.95
2023-06-05T09:01:45.059Z,22.56
2023-06-05T09:04:12.544Z,22.27
2023-06-05T09:06:40.828Z,22.69
2023-06-05T09:09:08.779Z,23.23
2023-06-05T09:11:35.628Z,23.29
2023-06-05T09:14:03.494Z,23.68
2023-06-05T09:16:38.986Z,24.16
2023-06-05T09:19:06.666Z,24.29
2023-06-05T09:21:34.973Z,24.43
2023-06-05T09:24:10.882Z,24.52
2023-06-05T09:26:59.632Z,24.18
2023-06-05T09:29:28.481Z,23.62
2023-06-05T09:31:58.177Z,23.62
2023-06-05T09:34:27.306Z,24.02
2023-06-05T09:36:56.163Z,23.91
2023-06-05T09:39:23.498Z,24.25
2023-06-05T09:41:52.386Z,24.20
2023-06-05T09:44:20.590Z,24.02
2023-06-05T09:46:59.559Z,24.56
2023-06-05T09:49:32.242Z,25.32
2023-06-05T09:52:03.076Z,24.73
2023-06-05T09:54:31.321Z,25.01
2023-06-05T09:57:00.633Z,24.97
2023-06-05T09:59:32.629Z,25.04
2023-06-05T10:02:07.208Z,24.57
2023-06-05T10:04:47.308Z,24.80
2023-06-05T10:07:14.269Z,25.37
2023-06-05T10:09:42.851Z,25.72
2023-06-05T10:12:12.961Z,25.58
2023-06-05T10:14:42.913Z,25.41
2023-06-05T10:17:11.617Z,25.34
2023-06-05T10:19:43.008Z,25.08
2023-06-05T10:22:12.914Z,25.34
2023-06-05T10:24:45.269Z,24.98
2023-06-05T10:27:48.004Z,25.15
2023-06-05T10:30:33.871Z,25.50
2023-06-05T10:33:24.063Z,25.15
2023-06-05T10:36:20.744Z,25.60
2023-06-05T10:38:47.915Z,25.32
2023-06-05T10:41:15.008Z,25.28
2023-06-05T10:43:53.261Z,25.73
2023-06-05T10:46:32.588Z,26.02
2023-06-05T10:49:21.381Z,25.05
2023-06-05T10:51:50.282Z,25.45
2023-06-05T10:54:39.727Z,25.23
2023-06-05T10:57:08.389Z,25.22
2023-06-05T10:59:37.209Z,25.49
2023-06-05T11:02:07.376Z,25.45
2023-06-05T11:05:00.324Z,25.82
2023-06-05T11:07:35.006Z,25.45
2023-06-05T11:10:07.508Z,25.59
2023-06-05T11:12:40.185Z,25.65
2023-06-05T11:15:09.218Z,25.49
2023-06-05T11:17:37.705Z,25.95
2023-06-05T11:20:32.213Z,26.29
2023-06-05T11:22:58.858Z,25.62
2023-06-05T11:25:30.516Z,25.56
2023-06-05T11:28:03.078Z,25.82
2023-06-05T11:30:44.926Z,25.81
2023-06-05T11:33:16.999Z,25.86
2023-06-05T11:35:51.943Z,26.01
2023-06-05T11:38:25.843Z,25.94
2023-06-05T11:40:53.487Z,25.69
2023-06-05T11:43:21.471Z,26.18
2023-06-05T11:46:06.289Z,26.56
2023-06-05T11:48:32.981Z,26.71
2023-06-05T11:51:02.213Z,26.28
2023-06-05T11:53:30.421Z,26.16
2023-06-05T11:56:04.365Z,25.64
2023-06-05T11:58:32.762Z,25.27
2023-06-05T12:01:08.832Z,25.40
2023-06-05T12:03:37.180Z,25.17
2023-06-05T12:06:04.562Z,25.34
2023-06-05T12:08:36.111Z,25.60
2023-06-05T12:11:19.981Z,25.77
2023-06-05T12:13:54.711Z,25.08
2023-06-05T12:16:34.412Z,25.11
2023-06-05T12:19:14.882Z,25.23
2023-06-05T12:21:43.778Z,25.43
2023-06-05T12:24:10.820Z,25.62
2023-06-05T12:26:57.378Z,25.42
2023-06-05T12:29:30.794Z,25.40
2023-06-05T12:31:59.643Z,25.10
2023-06-05T12:37:40.316Z,25.53
2023-06-05T12:40:13.645Z,25.34
2023-06-05T12:42:45.874Z,25.51
2023-06-05T12:45:18.578Z,25.40
2023-06-05T12:47:47.224Z,25.05
2023-06-05T12:50:18.733Z,24.91
2023-06-05T12:52:46.117Z,24.69
2023-06-05T12:55:15.863Z,24.74
2023-06-05T12:57:46.271Z,24.56
2023-06-05T13:00:14.680Z,24.36
2023-06-05T13:02:46.826Z,24.64
2023-06-05T13:05:15.067Z,24.27
2023-06-05T13:07:42.942Z,24.45
2023-06-05T13:10:18.999Z,24.29
2023-06-05T13:12:45.930Z,24.05
2023-06-05T13:15:14.466Z,24.47
2023-06-05T13:17:44.693Z,24.21
2023-06-05T13:20:12.520Z,24.18
2023-06-05T13:22:48.896Z,23.85
2023-06-05T13:25:15.570Z,23.84
2023-06-05T13:27:42.820Z,23.59
2023-06-05T13:30:10.026Z,23.26
2023-06-05T13:32:40.388Z,23.44
2023-06-05T13:35:09.240Z,23.19
2023-06-05T13:37:36.638Z,22.92
2023-06-05T13:40:10.168Z,23.00
2023-06-05T13:42:36.949Z,22.76
2023-06-05T13:45:04.523Z,22.87
2023-06-05T13:47:31.724Z,22.67
2023-06-05T13:49:59.166Z,22.59
2023-06-05T13:52:26.015Z,22.32
2023-06-05T13:54:52.659Z,22.37
2023-06-05T13:57:21.688Z,22.42
2023-06-05T13:59:48.348Z,22.58
2023-06-05T14:02:18.701Z,22.31
2023-06-05T14:04:45.687Z,22.20
2023-06-05T14:07:12.368Z,22.10
2023-06-05T14:09:39.104Z,22.22
2023-06-05T14:12:06.088Z,21.97
2023-06-05T14:14:33.026Z,21.85
2023-06-05T14:17:05.152Z,22.11
2023-06-05T14:19:37.054Z,22.08
2023-06-05T14:22:03.766Z,21.95
2023-06-05T14:24:30.547Z,22.03
2023-06-05T14:26:57.147Z,22.01
2023-06-05T14:29:23.695Z,21.75
2023-06-05T14:31:50.448Z,21.78
2023-06-05T14:34:17.147Z,21.65
2023-06-05T14:36:52.639Z,21.53
2023-06-05T14:39:21.566Z,21.57
2023-06-05T14:41:48.215Z,21.59
2023-06-05T14:46:48.339Z,21.30
2023-06-05T14:49:22.846Z,21.21
2023-06-05T14:51:49.462Z,21.27
2023-06-05T14:54:16.325Z,21.08
2023-06-05T14:56:47.540Z,21.00
2023-06-05T15:01:50.651Z,21.10
2023-06-05T15:04:19.722Z,21.06
2023-06-05T15:06:54.576Z,20.86
2023-06-05T15:09:23.021Z,20.88
2023-06-05T15:11:51.299Z,20.98
2023-06-05T15:14:18.736Z,21.00
2023-06-05T15:16:47.669Z,20.86
2023-06-05T15:19:14.566Z,20.75
2023-06-05T15:21:43.440Z,20.76
2023-06-05T15:24:10.395Z,20.44
2023-06-05T15:26:37.393Z,20.36
2023-06-05T15:29:04.065Z,20.41
2023-06-05T15:31:31.984Z,20.30
2023-06-05T15:33:58.746Z,20.26
2023-06-05T15:36:27.164Z,20.21
2023-06-05T15:38:53.956Z,20.05
2023-06-05T15:41:20.666Z,20.10
2023-06-05T15:43:47.456Z,19.96
2023-06-05T15:46:14.094Z,19.79
2023-06-05T15:48:41.136Z,19.72
2023-06-05T15:51:08.121Z,19.56
2023-06-05T15:53:40.294Z,19.39
2023-06-05T15:56:18.341Z,19.40
2023-06-05T15:58:45.028Z,19.34
2023-06-05T16:01:11.712Z,19.27
2023-06-05T16:03:38.559Z,19.29
2023-06-05T16:06:05.717Z,19.18
2023-06-05T16:08:33.944Z,19.09
2023-06-05T16:11:03.303Z,19.12
2023-06-05T16:13:29.872Z,19.10
2023-06-05T16:15:56.537Z,19.10
2023-06-05T16:18:23.591Z,19.13
2023-06-05T16:20:50.278Z,18.86
2023-06-05T16:23:17.187Z,18.74
2023-06-05T16:25:43.801Z,18.74
2023-06-05T16:28:10.624Z,18.60
2023-06-05T16:30:40.093Z,18.44
2023-06-05T16:33:06.898Z,18.44
2023-06-05T16:35:33.632Z,18.37
2023-06-05T16:38:00.204Z,18.25
2023-06-05T16:40:26.910Z,18.31
2023-06-05T16:42:53.774Z,18.25
2023-06-05T16:45:20.524Z,18.11
2023-06-05T16:47:47.199Z,18.13
2023-06-05T16:50:13.939Z,17.93
2023-06-05T16:52:40.752Z,17.84
2023-06-05T16:55:07.728Z,17.73
2023-06-05T16:57:34.401Z,17.75
2023-06-05T17:00:01.628Z,17.57
2023-06-05T17:02:28.253Z,17.58
2023-06-05T17:04:55.184Z,17.45
2023-06-05T17:07:28.097Z,17.40
2023-06-05T17:09:54.871Z,17.36
2023-06-05T17:12:21.466Z,17.33
2023-06-05T17:14:48.007Z,17.31
2023-06-05T17:17:14.747Z,17.33
2023-06-05T17:19:41.762Z,17.21
2023-06-05T17:22:08.333Z,17.01
2023-06-05T17:24:34.899Z,16.88
2023-06-05T17:27:04.491Z,16.85
2023-06-05T17:29:32.034Z,16.79
2023-06-05T17:31:59.870Z,16.75
2023-06-05T17:34:30.015Z,16.67
2023-06-05T17:36:56.699Z,16.65
2023-06-05T17:39:23.422Z,16.59
2023-06-05T17:41:50.158Z,16.52
2023-06-05T17:44:17.249Z,16.40
2023-06-05T17:46:44.075Z,16.39
2023-06-05T17:49:11.488Z,16.35
2023-06-05T17:51:38.269Z,16.11
2023-06-05T17:54:05.399Z,16.12
2023-06-05T17:56:32.212Z,16.02
2023-06-05T17:59:01.205Z,16.01
2023-06-05T18:01:28.175Z,15.92
2023-06-05T18:03:54.961Z,15.98
2023-06-05T18:06:24.536Z,15.84
2023-06-05T18:08:51.345Z,15.80
2023-06-05T18:11:18.122Z,15.69
2023-06-05T18:13:44.880Z,15.62
2023-06-05T18:16:11.748Z,15.56
2023-06-05T18:18:38.889Z,15.48
2023-06-05T18:21:12.167Z,15.39
2023-06-05T18:23:42.762Z,15.32
2023-06-05T18:26:11.245Z,15.20
2023-06-05T18:28:40.484Z,15.12
2023-06-05T18:31:08.457Z,15.02
2023-06-05T18:33:35.521Z,14.96
2023-06-05T18:36:02.237Z,14.90
2023-06-05T18:38:28.838Z,14.86
2023-06-05T18:40:55.457Z,14.76
2023-06-05T18:43:22.520Z,14.66
2023-06-05T18:45:49.136Z,14.57
2023-06-05T18:48:16.168Z,14.46
2023-06-05T18:50:42.961Z,14.45
2023-06-05T18:53:09.747Z,14.30
2023-06-05T18:55:36.321Z,14.26
2023-06-05T18:58:02.984Z,14.19
2023-06-05T19:00:29.640Z,14.06
2023-06-05T19:02:56.282Z,14.05
2023-06-05T19:05:23.021Z,13.96
2023-06-05T19:07:52.873Z,13.87
2023-06-05T19:10:19.492Z,13.76
2023-06-05T19:12:46.106Z,13.68
2023-06-05T19:15:13.178Z,13.54
2023-06-05T19:17:42.602Z,13.50
2023-06-05T19:20:09.312Z,13.42
2023-06-05T19:22:35.835Z,13.38
2023-06-05T19:25:02.587Z,13.23
2023-06-05T19:27:29.345Z,13.13
2023-06-05T19:29:56.385Z,13.06
2023-06-05T19:32:23.150Z,13.01
2023-06-05T19:34:49.852Z,12.93
2023-06-05T19:37:16.670Z,12.85
2023-06-05T19:39:43.301Z,12.85
2023-06-05T19:42:10.462Z,12.77
2023-06-05T19:44:37.209Z,12.68
2023-06-05T19:47:04.148Z,12.62
2023-06-05T19:49:30.834Z,12.50
2023-06-05T19:51:57.543Z,12.49
2023-06-05T19:54:24.276Z,12.40
2023-06-05T19:56:51.556Z,12.32
2023-06-05T19:59:18.122Z,12.22
2023-06-05T20:01:44.887Z,12.17
2023-06-05T20:04:11.733Z,12.17
2023-06-05T20:06:38.425Z,12.04
2023-06-05T20:09:05.167Z,12.06
2023-06-05T20:11:31.899Z,12.02
2023-06-05T20:13:58.941Z,12.03
2023-06-05T20:16:25.632Z,11.99
2023-06-05T20:18:53.379Z,11.94
2023-06-05T20:21:19.989Z,11.92
2023-06-05T20:23:49.128Z,11.86
2023-06-05T20:26:17.773Z,11.85
2023-06-05T20:28:44.938Z,11.89
2023-06-05T20:31:11.983Z,11.80
2023-06-05T20:33:38.892Z,11.77
2023-06-05T20:36:11.198Z,11.73
2023-06-05T20:38:39.408Z,11.73
2023-06-05T20:41:09.347Z,11.72
2023-06-05T20:43:36.899Z,11.69
2023-06-05T20:46:07.674Z,11.66
2023-06-05T20:48:34.934Z,11.60
2023-06-05T20:51:01.845Z,11.61
2023-06-05T20:53:29.735Z,11.58
2023-06-05T20:55:56.611Z,11.53
2023-06-05T20:58:23.901Z,11.48
2023-06-05T21:00:51.270Z,11.44
2023-06-05T21:03:18.184Z,11.40
2023-06-05T21:05:44.970Z,11.42
2023-06-05T21:08:11.538Z,11.36
2023-06-05T21:10:38.816Z,11.41
2023-06-05T21:13:05.443Z,11.43
2023-06-05T21:15:32.071Z,11.38
2023-06-05T21:17:58.748Z,11.39
2023-06-05T21:20:25.587Z,11.37
2023-06-05T21:22:52.123Z,11.36
2023-06-05T21:25:19.205Z,11.34
2023-06-05T21:27:45.839Z,11.34
2023-06-05T21:30:12.926Z,11.30
2023-06-05T21:32:39.679Z,11.23
2023-06-05T21:35:06.498Z,11.28
2023-06-05T21:37:33.097Z,11.27
2023-06-05T21:39:59.953Z,11.26
2023-06-05T21:42:26.535Z,11.22
2023-06-05T21:44:53.112Z,11.19
2023-06-05T21:47:20.231Z,11.23
2023-06-05T21:49:46.797Z,11.25
2023-06-05T21:52:13.857Z,11.23
2023-06-05T21:54:43.751Z,11.25
2023-06-05T21:57:11.802Z,11.20
2023-06-05T21:59:39.715Z,11.20
2023-06-05T22:02:08.214Z,11.21
2023-06-05T22:04:35.310Z,11.17
2023-06-05T22:07:03.064Z,11.17
2023-06-05T22:09:29.684Z,11.18
2023-06-05T22:11:56.230Z,11.15
2023-06-05T22:14:22.961Z,11.16
2023-06-05T22:16:51.514Z,11.14
2023-06-05T22:19:21.522Z,11.11
2023-06-05T22:21:49.333Z,11.08
2023-06-05T22:24:20.217Z,11.08
2023-06-05T22:26:49.002Z,11.11
2023-06-05T22:29:16.282Z,11.04
2023-06-05T22:31:42.991Z,11.05
2023-06-05T22:34:09.812Z,11.02
2023-06-05T22:36:36.331Z,11.00
2023-06-05T22:39:03.098Z,10.95
2023-06-05T22:41:31.086Z,10.89
2023-06-05T22:43:57.614Z,10.88
2023-06-05T22:46:24.197Z,10.91
2023-06-05T22:48:51.058Z,10.94
2023-06-05T22:51:20.476Z,10.86
2023-06-05T22:53:47.443Z,10.81
2023-06-05T22:56:14.831Z,10.80
2023-06-05T22:58:42.479Z,10.73
2023-06-05T23:01:10.066Z,10.66
2023-06-05T23:03:37.478Z,10.60
2023-06-05T23:06:04.209Z,10.62
2023-06-05T23:08:31.486Z,10.62
2023-06-05T23:10:58.503Z,10.55
2023-06-05T23:13:28.001Z,10.62
2023-06-05T23:15:55.556Z,10.47
2023-06-05T23:18:23.047Z,10.49
2023-06-05T23:20:49.716Z,10.45
2023-06-05T23:23:16.602Z,10.44
2023-06-05T23:25:43.273Z,10.44
2023-06-05T23:28:11.843Z,10.44
2023-06-05T23:30:39.584Z,10.42
2023-06-05T23:33:07.188Z,10.41
2023-06-05T23:35:34.099Z,10.38
2023-06-05T23:38:01.245Z,10.35
2023-06-05T23:40:29.181Z,10.34
2023-06-05T23:42:59.548Z,10.34
2023-06-05T23:45:33.737Z,10.29
2023-06-05T23:48:01.689Z,10.26
2023-06-05T23:50:28.701Z,10.20
2023-06-05T23:52:56.656Z,10.16
2023-06-05T23:55:24.589Z,10.15
2023-06-05T23:57:57.519Z,10.08
